Observation data for Northwest Lubbock on 08/12/2019      Previous  Date  Next       Current Mesonet Observations  Soil Data  Daily Summary Page  Observations in Plain Language
KLBW 120500Z 08004KT 25/14 A3002 RMK A01 T02470141  RH  054%=      5-min Rain = 0
KLBW 120505Z 08003KT 25/14 A3002 RMK A01 T02460141  RH  054%=      5-min Rain = 0
KLBW 120510Z 06003KT 25/14 A3002 RMK A01 T02450141  RH  054%=      5-min Rain = 0
KLBW 120515Z 07004KT 25/14 A3002 RMK A01 T02450141  RH  055%=      5-min Rain = 0
KLBW 120520Z 07003KT 25/14 A3002 RMK A01 T02450141  RH  055%=      5-min Rain = 0
KLBW 120525Z 07003KT 25/14 A3002 RMK A01 T02450140  RH  054%=      5-min Rain = 0
KLBW 120530Z 09003KT 24/14 A3002 RMK A01 T02430140  RH  055%=      5-min Rain = 0
KLBW 120535Z 09002KT 24/14 A3002 RMK A01 T02410139  RH  055%=      5-min Rain = 0
KLBW 120540Z 09002KT 24/14 A3003 RMK A01 T02390140  RH  056%=      5-min Rain = 0
KLBW 120545Z 08002KT 24/14 A3003 RMK A01 T02360139  RH  057%=      5-min Rain = 0
KLBW 120550Z 08001KT 23/14 A3003 RMK A01 T02320136  RH  057%=      5-min Rain = 0
KLBW 120555Z 06003KT 23/14 A3003 RMK A01 T02280138  RH  059%=      5-min Rain = 0
KLBW 120600Z 07003KT 23/14 A3003 RMK A01 T02280138  RH  059%=      5-min Rain = 0
KLBW 120605Z 06004KT 23/14 A3003 RMK A01 T02290139  RH  059%=      5-min Rain = 0
KLBW 120610Z 23002KT 23/14 A3003 RMK A01 T02250137  RH  060%=      5-min Rain = 0
KLBW 120615Z 06002KT 22/14 A3002 RMK A01 T02230138  RH  061%=      5-min Rain = 0
KLBW 120620Z 05004KT 23/14 A3002 RMK A01 T02330138  RH  058%=      5-min Rain = 0
KLBW 120625Z 06005KT 24/14 A3002 RMK A01 T02360140  RH  057%=      5-min Rain = 0
KLBW 120630Z 05002KT 24/14 A3002 RMK A01 T02360141  RH  057%=      5-min Rain = 0
KLBW 120635Z 06001KT 24/14 A3002 RMK A01 T02350140  RH  058%=      5-min Rain = 0
KLBW 120640Z 08003KT 23/14 A3002 RMK A01 T02330139  RH  058%=      5-min Rain = 0
KLBW 120645Z 09005KT 23/14 A3001 RMK A01 T02330139  RH  058%=      5-min Rain = 0
KLBW 120650Z 11006KT 23/14 A3001 RMK A01 T02330136  RH  057%=      5-min Rain = 0
KLBW 120655Z 07006KT 25/14 A3001 RMK A01 T02460139  RH  053%=      5-min Rain = 0
KLBW 120700Z 05005KT 24/14 A3001 RMK A01 T02400139  RH  055%=      5-min Rain = 0
KLBW 120705Z 14003KT 24/14 A3001 RMK A01 T02380138  RH  056%=      5-min Rain = 0
KLBW 120710Z 12000KT 24/14 A3001 RMK A01 T02350138  RH  057%=      5-min Rain = 0
KLBW 120715Z 07003KT 24/14 A3001 RMK A01 T02360136  RH  056%=      5-min Rain = 0
KLBW 120720Z 06004KT 24/14 A3001 RMK A01 T02390136  RH  055%=      5-min Rain = 0
KLBW 120725Z 06004KT 24/14 A30 RMK A01 T02410136  RH  054%=      5-min Rain = 0
KLBW 120730Z 08002KT 24/14 A30 RMK A01 T02400137  RH  055%=      5-min Rain = 0
KLBW 120735Z 07003KT 24/14 A30 RMK A01 T02370136  RH  056%=      5-min Rain = 0
KLBW 120740Z 06005KT 24/14 A30 RMK A01 T02390136  RH  055%=      5-min Rain = 0
KLBW 120745Z 07003KT 24/14 A30 RMK A01 T02370137  RH  055%=      5-min Rain = 0
KLBW 120750Z 08003KT 24/14 A30 RMK A01 T02350137  RH  057%=      5-min Rain = 0
KLBW 120755Z 09004KT 23/14 A30 RMK A01 T02330137  RH  057%=      5-min Rain = 0
KLBW 120800Z 09003KT 23/14 A30 RMK A01 T02310138  RH  058%=      5-min Rain = 0
KLBW 120805Z 09002KT 23/14 A2999 RMK A01 T02300137  RH  058%=      5-min Rain = 0
KLBW 120810Z 14001KT 23/14 A30 RMK A01 T02260137  RH  060%=      5-min Rain = 0
KLBW 120815Z 11002KT 22/14 A30 RMK A01 T02230136  RH  060%=      5-min Rain = 0
KLBW 120820Z 10003KT 22/14 A2999 RMK A01 T02220136  RH  061%=      5-min Rain = 0
KLBW 120825Z 10003KT 22/14 A2999 RMK A01 T02200135  RH  061%=      5-min Rain = 0
KLBW 120830Z 10003KT 22/14 A2999 RMK A01 T02180136  RH  062%=      5-min Rain = 0
KLBW 120835Z 10003KT 22/13 A30 RMK A01 T02150134  RH  062%=      5-min Rain = 0
KLBW 120840Z 09004KT 21/14 A30 RMK A01 T02130136  RH  064%=      5-min Rain = 0
KLBW 120845Z 10002KT 21/14 A30 RMK A01 T02110137  RH  065%=      5-min Rain = 0
KLBW 120850Z 29003KT 21/14 A30 RMK A01 T02100136  RH  065%=      5-min Rain = 0
KLBW 120855Z 27003KT 21/14 A30 RMK A01 T02130138  RH  065%=      5-min Rain = 0
KLBW 120900Z 22001KT 22/14 A30 RMK A01 T02200137  RH  062%=      5-min Rain = 0
KLBW 120905Z 25003KT 22/14 A30 RMK A01 T02190137  RH  062%=      5-min Rain = 0
KLBW 120910Z 25001KT 22/14 A30 RMK A01 T02180137  RH  062%=      5-min Rain = 0
KLBW 120915Z 25002KT 22/14 A30 RMK A01 T02150136  RH  063%=      5-min Rain = 0
KLBW 120920Z 24002KT 21/13 A30 RMK A01 T02110134  RH  064%=      5-min Rain = 0
KLBW 120925Z 22002KT 21/13 A30 RMK A01 T02090134  RH  065%=      5-min Rain = 0
KLBW 120930Z 19003KT 21/14 A30 RMK A01 T02080136  RH  066%=      5-min Rain = 0
KLBW 120935Z 18003KT 21/13 A30 RMK A01 T02060133  RH  066%=      5-min Rain = 0
KLBW 120940Z 16004KT 21/13 A30 RMK A01 T02050134  RH  066%=      5-min Rain = 0
KLBW 120945Z 14004KT 20/14 A30 RMK A01 T02040135  RH  067%=      5-min Rain = 0
KLBW 120950Z 14004KT 21/14 A30 RMK A01 T02050138  RH  068%=      5-min Rain = 0
KLBW 120955Z 15004KT 21/14 A30 RMK A01 T02080140  RH  068%=      5-min Rain = 0
KLBW 121000Z 16004KT 21/14 A30 RMK A01 T02110138  RH  066%=      5-min Rain = 0
KLBW 121005Z 16005KT 21/14 A30 RMK A01 T02130138  RH  065%=      5-min Rain = 0
KLBW 121010Z 17005KT 22/14 A30 RMK A01 T02160135  RH  062%=      5-min Rain = 0
KLBW 121015Z 17005KT 22/13 A30 RMK A01 T02220133  RH  059%=      5-min Rain = 0
KLBW 121020Z 16005KT 23/13 A30 RMK A01 T02260133  RH  058%=      5-min Rain = 0
KLBW 121025Z 17005KT 23/13 A30 RMK A01 T02280132  RH  057%=      5-min Rain = 0
KLBW 121030Z 17005KT 23/13 A30 RMK A01 T02280131  RH  056%=      5-min Rain = 0
KLBW 121035Z 18004KT 23/13 A30 RMK A01 T02270130  RH  057%=      5-min Rain = 0
KLBW 121040Z 18004KT 23/13 A30 RMK A01 T02250130  RH  057%=      5-min Rain = 0
KLBW 121045Z 17005KT 23/13 A30 RMK A01 T02250130  RH  057%=      5-min Rain = 0
KLBW 121050Z 17005KT 23/13 A30 RMK A01 T02260130  RH  057%=      5-min Rain = 0
KLBW 121055Z 17005KT 23/13 A30 RMK A01 T02270129  RH  056%=      5-min Rain = 0
KLBW 121100Z 17005KT 23/13 A2999 RMK A01 T02290129  RH  055%=      5-min Rain = 0
KLBW 121105Z 17004KT 23/13 A2999 RMK A01 T02300129  RH  055%=      5-min Rain = 0
KLBW 121110Z 16005KT 23/13 A2999 RMK A01 T02290128  RH  055%=      5-min Rain = 0
KLBW 121115Z 16005KT 23/13 A2999 RMK A01 T02290127  RH  055%=      5-min Rain = 0
KLBW 121120Z 16005KT 23/13 A2999 RMK A01 T02320126  RH  053%=      5-min Rain = 0
KLBW 121125Z 17005KT 23/13 A2999 RMK A01 T02340125  RH  053%=      5-min Rain = 0
KLBW 121130Z 20004KT 23/13 A30 RMK A01 T02330126  RH  053%=      5-min Rain = 0
KLBW 121135Z 19005KT 23/13 A30 RMK A01 T02300126  RH  054%=      5-min Rain = 0
KLBW 121140Z 20005KT 23/13 A30 RMK A01 T02280125  RH  054%=      5-min Rain = 0
KLBW 121145Z 19005KT 23/13 A30 RMK A01 T02280126  RH  055%=      5-min Rain = 0
KLBW 121150Z 19006KT 23/13 A30 RMK A01 T02280125  RH  054%=      5-min Rain = 0
KLBW 121155Z 20006KT 23/13 A30 RMK A01 T02300126  RH  054%=      5-min Rain = 0
KLBW 121200Z 19006KT 23/13 A30 RMK A01 T02320126  RH  053%=      5-min Rain = 0
KLBW 121205Z 17006KT 24/13 A30 RMK A01 T02360127  RH  052%=      5-min Rain = 0
KLBW 121210Z 18007KT 24/13 A30 RMK A01 T02400129  RH  052%=      5-min Rain = 0
KLBW 121215Z 19005KT 24/13 A30 RMK A01 T02420130  RH  052%=      5-min Rain = 0
KLBW 121220Z 19005KT 24/13 A30 RMK A01 T02400130  RH  052%=      5-min Rain = 0
KLBW 121225Z 19005KT 24/13 A30 RMK A01 T02400132  RH  053%=      5-min Rain = 0
KLBW 121230Z 19005KT 24/13 A30 RMK A01 T02420133  RH  053%=      5-min Rain = 0
KLBW 121235Z 19005KT 24/13 A30 RMK A01 T02440134  RH  052%=      5-min Rain = 0
KLBW 121240Z 19006KT 25/14 A30 RMK A01 T02450135  RH  052%=      5-min Rain = 0
KLBW 121245Z 19008KT 25/14 A30 RMK A01 T02490135  RH  051%=      5-min Rain = 0
KLBW 121250Z 19007KT 25/14 A30 RMK A01 T02510136  RH  051%=      5-min Rain = 0
KLBW 121255Z 19007KT 25/14 A30 RMK A01 T02530136  RH  050%=      5-min Rain = 0
KLBW 121300Z 19007KT 26/14 A30 RMK A01 T02550137  RH  050%=      5-min Rain = 0
KLBW 121305Z 19007KT 26/14 A30 RMK A01 T02570137  RH  050%=      5-min Rain = 0
KLBW 121310Z 19007KT 26/14 A30 RMK A01 T02590137  RH  049%=      5-min Rain = 0
KLBW 121315Z 19007KT 26/14 A3001 RMK A01 T02610138  RH  049%=      5-min Rain = 0
KLBW 121320Z 19007KT 26/14 A3001 RMK A01 T02620138  RH  048%=      5-min Rain = 0
KLBW 121325Z 19007KT 26/14 A3001 RMK A01 T02640139  RH  048%=      5-min Rain = 0
KLBW 121330Z 20007KT 27/14 A3001 RMK A01 T02670140  RH  048%=      5-min Rain = 0
KLBW 121335Z 19008G14KT 27/14 A3001 RMK A01 T02680140  RH  047%=      5-min Rain = 0
KLBW 121340Z 19009G14KT 27/14 A3001 RMK A01 T02680140  RH  047%=      5-min Rain = 0
KLBW 121345Z 19009KT 27/14 A3001 RMK A01 T02700140  RH  047%=      5-min Rain = 0
KLBW 121350Z 20008G14KT 27/14 A3001 RMK A01 T02720141  RH  046%=      5-min Rain = 0
KLBW 121355Z 19007KT 28/14 A3001 RMK A01 T02750142  RH  046%=      5-min Rain = 0
KLBW 121400Z 19008KT 28/14 A3002 RMK A01 T02780142  RH  045%=      5-min Rain = 0
KLBW 121405Z 19007KT 28/14 A3002 RMK A01 T02800143  RH  045%=      5-min Rain = 0
KLBW 121410Z 19008KT 28/14 A3002 RMK A01 T02810142  RH  045%=      5-min Rain = 0
KLBW 121415Z 18009KT 28/14 A3002 RMK A01 T02820142  RH  044%=      5-min Rain = 0
KLBW 121420Z 19009KT 28/14 A3002 RMK A01 T02830142  RH  044%=      5-min Rain = 0
KLBW 121425Z 18008KT 29/14 A3002 RMK A01 T02870143  RH  043%=      5-min Rain = 0
KLBW 121430Z 18007KT 29/15 A3002 RMK A01 T02890145  RH  043%=      5-min Rain = 0
KLBW 121435Z 19010G15KT 29/14 A3002 RMK A01 T02910144  RH  042%=      5-min Rain = 0
KLBW 121440Z 19010KT 29/14 A3002 RMK A01 T02890142  RH  043%=      5-min Rain = 0
KLBW 121445Z 19011KT 29/14 A3002 RMK A01 T02900142  RH  042%=      5-min Rain = 0
KLBW 121450Z 19010KT 29/14 A3002 RMK A01 T02930142  RH  041%=      5-min Rain = 0
KLBW 121455Z 19010KT 29/14 A3002 RMK A01 T02920142  RH  042%=      5-min Rain = 0
KLBW 121500Z 18009KT 30/14 A3001 RMK A01 T02970144  RH  041%=      5-min Rain = 0
KLBW 121505Z 19010KT 30/14 A3001 RMK A01 T03030144  RH  040%=      5-min Rain = 0
KLBW 121510Z 20010KT 30/14 A3001 RMK A01 T03000143  RH  040%=      5-min Rain = 0
KLBW 121515Z 19010KT 30/14 A3001 RMK A01 T03040142  RH  039%=      5-min Rain = 0
KLBW 121520Z 19011G16KT 30/14 A3001 RMK A01 T03020141  RH  039%=      5-min Rain = 0
KLBW 121525Z 20011G16KT 30/14 A3001 RMK A01 T03010142  RH  039%=      5-min Rain = 0
KLBW 121530Z 20010G15KT 31/14 A3001 RMK A01 T03070143  RH  039%=      5-min Rain = 0
KLBW 121535Z 20010G15KT 31/14 A3001 RMK A01 T03080142  RH  038%=      5-min Rain = 0
KLBW 121540Z 19010KT 31/14 A3001 RMK A01 T03100143  RH  038%=      5-min Rain = 0
KLBW 121545Z 21009G14KT 31/14 A30 RMK A01 T03120144  RH  038%=      5-min Rain = 0
KLBW 121550Z 19010KT 31/14 A30 RMK A01 T03140143  RH  037%=      5-min Rain = 0
KLBW 121555Z 19009KT 32/14 A30 RMK A01 T03180144  RH  036%=      5-min Rain = 0
KLBW 121600Z 21009KT 32/14 A30 RMK A01 T03180143  RH  036%=      5-min Rain = 0
KLBW 121605Z 22010KT 32/14 A30 RMK A01 T03180143  RH  036%=      5-min Rain = 0
KLBW 121610Z 19009KT 32/14 A30 RMK A01 T03210144  RH  036%=      5-min Rain = 0
KLBW 121615Z 20009KT 33/14 A30 RMK A01 T03250144  RH  035%=      5-min Rain = 0
KLBW 121620Z 20008KT 32/14 A30 RMK A01 T03240143  RH  035%=      5-min Rain = 0
KLBW 121625Z 21009KT 33/14 A30 RMK A01 T03250144  RH  035%=      5-min Rain = 0
KLBW 121630Z 20008KT 33/14 A30 RMK A01 T03290143  RH  034%=      5-min Rain = 0
KLBW 121635Z 18006KT 33/15 A30 RMK A01 T03340145  RH  033%=      5-min Rain = 0
KLBW 121640Z 19009KT 33/15 A30 RMK A01 T03330145  RH  034%=      5-min Rain = 0
KLBW 121645Z 21009KT 34/14 A30 RMK A01 T03350143  RH  033%=      5-min Rain = 0
KLBW 121650Z 21008KT 33/14 A30 RMK A01 T03330143  RH  033%=      5-min Rain = 0
KLBW 121655Z 18008G13KT 34/15 A2999 RMK A01 T03400146  RH  033%=      5-min Rain = 0
KLBW 121700Z 18007G12KT 34/15 A2999 RMK A01 T03430146  RH  032%=      5-min Rain = 0
KLBW 121705Z 17008G13KT 34/15 A2999 RMK A01 T03440145  RH  032%=      5-min Rain = 0
KLBW 121710Z 19008G13KT 35/15 A2999 RMK A01 T03480145  RH  031%=      5-min Rain = 0
KLBW 121715Z 18007KT 35/14 A2999 RMK A01 T03450143  RH  031%=      5-min Rain = 0
KLBW 121720Z 18009KT 35/14 A2999 RMK A01 T03490143  RH  031%=      5-min Rain = 0
KLBW 121725Z 18008KT 35/14 A2999 RMK A01 T03490143  RH  030%=      5-min Rain = 0
KLBW 121730Z 16007G12KT 35/14 A2999 RMK A01 T03500142  RH  030%=      5-min Rain = 0
KLBW 121735Z 17009KT 36/14 A2999 RMK A01 T03570141  RH  029%=      5-min Rain = 0
KLBW 121740Z 19008KT 36/14 A2999 RMK A01 T03570141  RH  029%=      5-min Rain = 0
KLBW 121745Z 20006G12KT 35/14 A2999 RMK A01 T03540143  RH  030%=      5-min Rain = 0
KLBW 121750Z 18007G14KT 36/14 A2999 RMK A01 T03590141  RH  028%=      5-min Rain = 0
KLBW 121755Z 18007KT 36/14 A2999 RMK A01 T03590141  RH  028%=      5-min Rain = 0
KLBW 121800Z 20006G13KT 36/14 A2999 RMK A01 T03590140  RH  028%=      5-min Rain = 0
KLBW 121805Z 18007G13KT 36/14 A2998 RMK A01 T03580139  RH  028%=      5-min Rain = 0
KLBW 121810Z 17007G12KT 36/14 A2998 RMK A01 T03610141  RH  028%=      5-min Rain = 0
KLBW 121815Z 16009KT 36/14 A2998 RMK A01 T03640138  RH  027%=      5-min Rain = 0
KLBW 121820Z 16009KT 36/14 A2998 RMK A01 T03640139  RH  027%=      5-min Rain = 0
KLBW 121825Z 19008G13KT 37/14 A2998 RMK A01 T03650137  RH  027%=      5-min Rain = 0
KLBW 121830Z 17009G15KT 37/14 A2998 RMK A01 T03680138  RH  026%=      5-min Rain = 0
KLBW 121835Z 18008G13KT 37/14 A2997 RMK A01 T03670139  RH  027%=      5-min Rain = 0
KLBW 121840Z 16008G14KT 37/14 A2997 RMK A01 T03720138  RH  026%=      5-min Rain = 0
KLBW 121845Z 17010G15KT 37/14 A2997 RMK A01 T03730138  RH  026%=      5-min Rain = 0
KLBW 121850Z 16010KT 37/14 A2997 RMK A01 T03730135  RH  025%=      5-min Rain = 0
KLBW 121855Z 18010G16KT 38/13 A2997 RMK A01 T03760132  RH  024%=      5-min Rain = 0
KLBW 121900Z 17011G16KT 37/13 A2997 RMK A01 T03720125  RH  024%=      5-min Rain = 0
KLBW 121905Z 16012KT 37/13 A2997 RMK A01 T03740127  RH  024%=      5-min Rain = 0
KLBW 121910Z 16012G18KT 37/12 A2996 RMK A01 T03740123  RH  023%=      5-min Rain = 0
KLBW 121915Z 18010G16KT 38/12 A2996 RMK A01 T03750122  RH  023%=      5-min Rain = 0
KLBW 121920Z 19010G17KT 38/13 A2996 RMK A01 T03790126  RH  023%=      5-min Rain = 0
KLBW 121925Z 18010KT 38/13 A2996 RMK A01 T03820125  RH  022%=      5-min Rain = 0
KLBW 121930Z 18009G14KT 39/12 A2996 RMK A01 T03850123  RH  022%=      5-min Rain = 0
KLBW 121935Z 19011G16KT 38/12 A2995 RMK A01 T03830121  RH  022%=      5-min Rain = 0
KLBW 121940Z 19013G18KT 39/12 A2995 RMK A01 T03860124  RH  022%=      5-min Rain = 0
KLBW 121945Z 18008G14KT 38/12 A2995 RMK A01 T03830124  RH  022%=      5-min Rain = 0
KLBW 121950Z 19012G18KT 39/12 A2995 RMK A01 T03850122  RH  022%=      5-min Rain = 0
KLBW 121955Z 20010G17KT 39/12 A2995 RMK A01 T03860119  RH  021%=      5-min Rain = 0
KLBW 122000Z 18011G20KT 39/12 A2995 RMK A01 T03870115  RH  020%=      5-min Rain = 0
KLBW 122005Z 18014G21KT 38/12 A2995 RMK A01 T03840115  RH  021%=      5-min Rain = 0
KLBW 122010Z 17007G14KT 38/12 A2995 RMK A01 T03830118  RH  021%=      5-min Rain = 0
KLBW 122015Z 19009G17KT 39/12 A2994 RMK A01 T03870115  RH  020%=      5-min Rain = 0
KLBW 122020Z 22012KT 39/11 A2994 RMK A01 T03910113  RH  020%=      5-min Rain = 0
KLBW 122025Z 23013G19KT 39/12 A2994 RMK A01 T03850118  RH  021%=      5-min Rain = 0
KLBW 122030Z 21008KT 38/12 A2994 RMK A01 T03820118  RH  021%=      5-min Rain = 0
KLBW 122035Z 20009G17KT 39/11 A2993 RMK A01 T03850113  RH  020%=      5-min Rain = 0
KLBW 122040Z 18011G18KT 40/11 A2993 RMK A01 T03950111  RH  019%=      5-min Rain = 0
KLBW 122045Z 21008KT 40/11 A2993 RMK A01 T03960110  RH  019%=      5-min Rain = 0
KLBW 122050Z 20007G13KT 40/11 A2993 RMK A01 T03950106  RH  018%=      5-min Rain = 0
KLBW 122055Z 23011G17KT 39/11 A2993 RMK A01 T03930106  RH  019%=      5-min Rain = 0
KLBW 122100Z 21012G18KT 39/10 A2992 RMK A01 T03910103  RH  018%=      5-min Rain = 0
KLBW 122105Z 21012G19KT 40/10 A2992 RMK A01 T03950103  RH  018%=      5-min Rain = 0
KLBW 122110Z 19011G17KT 39/10 A2992 RMK A01 T03920102  RH  018%=      5-min Rain = 0
KLBW 122115Z 18011G17KT 39/10 A2992 RMK A01 T03890104  RH  019%=      5-min Rain = 0
KLBW 122120Z 19008G13KT 38/10 A2992 RMK A01 T03770104  RH  020%=      5-min Rain = 0
KLBW 122125Z 18007G12KT 39/10 A2991 RMK A01 T03880104  RH  019%=      5-min Rain = 0
KLBW 122130Z 18007KT 38/10 A2991 RMK A01 T03830101  RH  019%=      5-min Rain = 0
KLBW 122135Z 20010G18KT 39/10 A2991 RMK A01 T03940103  RH  018%=      5-min Rain = 0
KLBW 122140Z 20013KT 39/10 A2991 RMK A01 T03910097  RH  018%=      5-min Rain = 0
KLBW 122145Z 21010G16KT 39/10 A2991 RMK A01 T03870099  RH  018%=      5-min Rain = 0
KLBW 122150Z 21011G18KT 38/10 A2991 RMK A01 T03790096  RH  019%=      5-min Rain = 0
KLBW 122155Z 20013KT 39/10 A2991 RMK A01 T03860098  RH  018%=      5-min Rain = 0
KLBW 122200Z 19011G18KT 39/10 A2991 RMK A01 T03850098  RH  018%=      5-min Rain = 0
KLBW 122205Z 19008KT 38/10 A299 RMK A01 T03810098  RH  019%=      5-min Rain = 0
KLBW 122210Z 20010G17KT 38/10 A299 RMK A01 T03820099  RH  019%=      5-min Rain = 0
KLBW 122215Z 18012G18KT 39/10 A299 RMK A01 T03900098  RH  018%=      5-min Rain = 0
KLBW 122220Z 18007KT 39/10 A299 RMK A01 T03910099  RH  018%=      5-min Rain = 0
KLBW 122225Z 22009KT 39/10 A299 RMK A01 T03910100  RH  018%=      5-min Rain = 0
KLBW 122230Z 20008G14KT 39/10 A2989 RMK A01 T03900100  RH  018%=      5-min Rain = 0
KLBW 122235Z 22012KT 39/10 A2989 RMK A01 T03860097  RH  018%=      5-min Rain = 0
KLBW 122240Z 22009G15KT 37/10 A2989 RMK A01 T03740096  RH  019%=      5-min Rain = 0
KLBW 122245Z 20010KT 39/10 A2989 RMK A01 T03870098  RH  018%=      5-min Rain = 0
KLBW 122250Z 21010KT 39/10 A2989 RMK A01 T03890099  RH  018%=      5-min Rain = 0
KLBW 122255Z 19010G15KT 39/10 A2989 RMK A01 T03890101  RH  018%=      5-min Rain = 0
KLBW 122300Z 20012G18KT 39/10 A2989 RMK A01 T03880101  RH  018%=      5-min Rain = 0
KLBW 122305Z 23009G15KT 39/10 A2989 RMK A01 T03850103  RH  019%=      5-min Rain = 0
KLBW 122310Z 18010G15KT 39/10 A2988 RMK A01 T03860101  RH  019%=      5-min Rain = 0
KLBW 122315Z 20009G14KT 38/10 A2988 RMK A01 T03760100  RH  020%=      5-min Rain = 0
KLBW 122320Z 19011G18KT 38/10 A2988 RMK A01 T03810100  RH  019%=      5-min Rain = 0
KLBW 122325Z 19009KT 38/10 A2988 RMK A01 T03840098  RH  018%=      5-min Rain = 0
KLBW 122330Z 21007KT 38/10 A2988 RMK A01 T03820104  RH  019%=      5-min Rain = 0
KLBW 122335Z 17008G15KT 38/11 A2988 RMK A01 T03840105  RH  019%=      5-min Rain = 0
KLBW 122340Z 20009KT 38/11 A2988 RMK A01 T03840106  RH  020%=      5-min Rain = 0
KLBW 122345Z 21011G16KT 38/11 A2988 RMK A01 T03830105  RH  019%=      5-min Rain = 0
KLBW 122350Z 21010G16KT 38/10 A2987 RMK A01 T03760104  RH  020%=      5-min Rain = 0
KLBW 122355Z 22009G15KT 38/11 A2987 RMK A01 T03770106  RH  020%=      5-min Rain = 0
KLBW 130000Z 22009G15KT 38/11 A2987 RMK A01 T03760105  RH  020%=      5-min Rain = 0
KLBW 130005Z 22009KT 38/10 A2987 RMK A01 T03750104  RH  020%=      5-min Rain = 0
KLBW 130010Z 21007KT 38/11 A2987 RMK A01 T03770105  RH  020%=      5-min Rain = 0
KLBW 130015Z 21008G13KT 38/10 A2987 RMK A01 T03760104  RH  020%=      5-min Rain = 0
KLBW 130020Z 21009KT 38/11 A2987 RMK A01 T03750105  RH  020%=      5-min Rain = 0
KLBW 130025Z 20009KT 37/10 A2987 RMK A01 T03720102  RH  020%=      5-min Rain = 0
KLBW 130030Z 21007G12KT 37/10 A2987 RMK A01 T03710103  RH  021%=      5-min Rain = 0
KLBW 130035Z 20008G13KT 37/11 A2987 RMK A01 T03700105  RH  021%=      5-min Rain = 0
KLBW 130040Z 21008KT 37/11 A2987 RMK A01 T03680105  RH  021%=      5-min Rain = 0
KLBW 130045Z 20008G13KT 37/10 A2987 RMK A01 T03670103  RH  021%=      5-min Rain = 0
KLBW 130050Z 21004KT 37/11 A2987 RMK A01 T03660105  RH  021%=      5-min Rain = 0
KLBW 130055Z 21004KT 37/11 A2987 RMK A01 T03650109  RH  022%=      5-min Rain = 0
KLBW 130100Z 22006KT 36/11 A2988 RMK A01 T03600110  RH  023%=      5-min Rain = 0
KLBW 130105Z 22007KT 36/11 A2988 RMK A01 T03580107  RH  023%=      5-min Rain = 0
KLBW 130110Z 23006KT 36/11 A2988 RMK A01 T03550108  RH  023%=      5-min Rain = 0
KLBW 130115Z 23007KT 35/11 A2988 RMK A01 T03530106  RH  023%=      5-min Rain = 0
KLBW 130120Z 24007KT 35/11 A2988 RMK A01 T03510106  RH  023%=      5-min Rain = 0
KLBW 130125Z 23006KT 35/11 A2989 RMK A01 T03480107  RH  024%=      5-min Rain = 0
KLBW 130130Z 24006KT 35/11 A2989 RMK A01 T03460107  RH  024%=      5-min Rain = 0
KLBW 130135Z 24006KT 35/11 A2989 RMK A01 T03450107  RH  024%=      5-min Rain = 0
KLBW 130140Z 24005KT 34/11 A2989 RMK A01 T03420109  RH  025%=      5-min Rain = 0
KLBW 130145Z 24005KT 34/11 A2989 RMK A01 T03360111  RH  026%=      5-min Rain = 0
KLBW 130150Z 25004KT 33/11 A2989 RMK A01 T03320112  RH  027%=      5-min Rain = 0
KLBW 130155Z 25005KT 33/11 A2989 RMK A01 T03280112  RH  028%=      5-min Rain = 0
KLBW 130200Z 24003KT 33/11 A2989 RMK A01 T03250113  RH  028%=      5-min Rain = 0
KLBW 130205Z 25003KT 32/11 A2989 RMK A01 T03210114  RH  029%=      5-min Rain = 0
KLBW 130210Z 25003KT 32/12 A299 RMK A01 T03160115  RH  030%=      5-min Rain = 0
KLBW 130215Z 25003KT 31/11 A299 RMK A01 T03110114  RH  031%=      5-min Rain = 0
KLBW 130220Z 26003KT 31/11 A299 RMK A01 T03090113  RH  031%=      5-min Rain = 0
KLBW 130225Z 26003KT 31/11 A299 RMK A01 T03060114  RH  032%=      5-min Rain = 0
KLBW 130230Z 26002KT 30/11 A299 RMK A01 T03010114  RH  033%=      5-min Rain = 0
KLBW 130235Z 26002KT 30/12 A299 RMK A01 T02960115  RH  034%=      5-min Rain = 0
KLBW 130240Z 26002KT 29/11 A2991 RMK A01 T02920114  RH  035%=      5-min Rain = 0
KLBW 130245Z 26002KT 29/12 A2991 RMK A01 T02890115  RH  035%=      5-min Rain = 0
KLBW 130250Z 27002KT 29/12 A2991 RMK A01 T02850116  RH  036%=      5-min Rain = 0
KLBW 130255Z 28003KT 28/12 A2991 RMK A01 T02790117  RH  038%=      5-min Rain = 0
KLBW 130300Z 27003KT 27/12 A2991 RMK A01 T02740116  RH  039%=      5-min Rain = 0
KLBW 130305Z 25004KT 27/11 A2991 RMK A01 T02710114  RH  039%=      5-min Rain = 0
KLBW 130310Z 26004KT 27/12 A2991 RMK A01 T02680116  RH  040%=      5-min Rain = 0
KLBW 130315Z 26005KT 27/12 A2992 RMK A01 T02680118  RH  041%=      5-min Rain = 0
KLBW 130320Z 27004KT 27/12 A2992 RMK A01 T02740120  RH  040%=      5-min Rain = 0
KLBW 130325Z 28004KT 28/12 A2992 RMK A01 T02750118  RH  039%=      5-min Rain = 0
KLBW 130330Z 28004KT 28/12 A2992 RMK A01 T02750117  RH  039%=      5-min Rain = 0
KLBW 130335Z 28004KT 28/12 A2992 RMK A01 T02770117  RH  038%=      5-min Rain = 0
KLBW 130340Z 28004KT 28/12 A2992 RMK A01 T02810117  RH  037%=      5-min Rain = 0
KLBW 130345Z 28005KT 28/12 A2992 RMK A01 T02820117  RH  037%=      5-min Rain = 0
KLBW 130350Z 28005KT 28/12 A2993 RMK A01 T02820116  RH  037%=      5-min Rain = 0
KLBW 130355Z 28006KT 29/12 A2993 RMK A01 T02850115  RH  036%=      5-min Rain = 0
KLBW 130400Z 28006KT 29/11 A2993 RMK A01 T02870114  RH  035%=      5-min Rain = 0
KLBW 130405Z 28007KT 29/11 A2993 RMK A01 T02900113  RH  035%=      5-min Rain = 0
KLBW 130410Z 28006KT 29/12 A2993 RMK A01 T02940116  RH  034%=      5-min Rain = 0
KLBW 130415Z 29006KT 29/12 A2994 RMK A01 T02940120  RH  035%=      5-min Rain = 0
KLBW 130420Z 30005KT 29/12 A2994 RMK A01 T02930124  RH  037%=      5-min Rain = 0
KLBW 130425Z 31005KT 29/13 A2994 RMK A01 T02930127  RH  038%=      5-min Rain = 0
KLBW 130430Z 31004KT 29/13 A2994 RMK A01 T02910129  RH  039%=      5-min Rain = 0
KLBW 130435Z 31005KT 29/13 A2994 RMK A01 T02880131  RH  039%=      5-min Rain = 0
KLBW 130440Z 32005KT 29/13 A2994 RMK A01 T02850132  RH  040%=      5-min Rain = 0
KLBW 130445Z 32006KT 28/13 A2994 RMK A01 T02820133  RH  042%=      5-min Rain = 0
KLBW 130450Z 33005KT 28/14 A2994 RMK A01 T02800135  RH  043%=      5-min Rain = 0
KLBW 130455Z 32005KT 28/14 A2994 RMK A01 T02770136  RH  044%=      5-min Rain = 0

Page generated in 0.0093 seconds.